Time;durP1;ratioP1;P1;durP2;ratioP2;P2;SDS_P1;SDS_P2;PMS_P1;PMS_P2;Temp;Humidity;BMP_temperature;BMP_pressure;BME280_temperature;BME280_humidity;BME280_pressure;Samples;Min_cycle;Max_cycle;Signal;HPM_P1;HPM_P2
2022/09/07 00:00:12;;;;;;;1.50;1.23;;;;;;;;;;5050336;28;20216;-83
2022/09/07 00:02:38;;;;;;;0.80;0.80;;;;;;;;;;5047721;28;20279;-83
2022/09/07 00:05:08;;;;;;;1.00;1.00;;;;;;;;;;5040153;28;20227;-82
2022/09/07 00:07:35;;;;;;;0.90;0.90;;;;;;;;;;5042945;28;20629;-83
2022/09/07 00:10:02;;;;;;;1.10;1.00;;;;;;;;;;5016255;28;20581;-83
2022/09/07 00:12:29;;;;;;;0.90;0.90;;;;;;;;;;5032628;28;20214;-83
2022/09/07 00:14:56;;;;;;;0.90;0.90;;;;;;;;;;5036257;28;20216;-83
2022/09/07 00:17:22;;;;;;;0.50;0.50;;;;;;;;;;5030710;28;20211;-84
2022/09/07 00:19:49;;;;;;;1.00;1.00;;;;;;;;;;5050273;28;20196;-83
2022/09/07 00:22:18;;;;;;;0.90;0.90;;;;;;;;;;5050299;28;20207;-83
2022/09/07 00:24:44;;;;;;;1.00;1.00;;;;;;;;;;5050367;28;20608;-84
2022/09/07 00:27:12;;;;;;;1.00;1.00;;;;;;;;;;5043089;28;20208;-84
2022/09/07 00:29:39;;;;;;;1.10;1.00;;;;;;;;;;5020369;28;20207;-83
2022/09/07 00:32:06;;;;;;;1.00;1.00;;;;;;;;;;5024934;28;20235;-83
2022/09/07 00:34:33;;;;;;;0.70;0.70;;;;;;;;;;5050191;28;20215;-83
2022/09/07 00:37:00;;;;;;;2.10;2.03;;;;;;;;;;5054310;28;20574;-83
2022/09/07 00:39:28;;;;;;;0.60;0.60;;;;;;;;;;5026190;28;20598;-83
2022/09/07 00:41:55;;;;;;;1.10;1.00;;;;;;;;;;5047246;28;20202;-84
2022/09/07 00:45:08;;;;;;;1.23;1.17;;;;;;;;;;5053879;28;20588;-83
2022/09/07 00:47:39;;;;;;;0.90;0.90;;;;;;;;;;5031810;28;20213;-83
2022/09/07 00:50:12;;;;;;;1.43;0.80;;;;;;;;;;5049670;28;20199;-83
2022/09/07 00:52:39;;;;;;;1.97;1.00;;;;;;;;;;5054191;28;20642;-83
2022/09/07 00:55:10;;;;;;;1.17;1.07;;;;;;;;;;5039489;28;20202;-83
2022/09/07 00:57:38;;;;;;;0.80;0.80;;;;;;;;;;5040015;28;20236;-84
2022/09/07 01:00:05;;;;;;;1.03;1.03;;;;;;;;;;5045905;28;20257;-84
2022/09/07 01:02:33;;;;;;;0.93;0.93;;;;;;;;;;5053772;28;20207;-84
2022/09/07 01:05:04;;;;;;;1.53;1.43;;;;;;;;;;5035793;28;20250;-84
2022/09/07 01:07:31;;;;;;;0.87;0.87;;;;;;;;;;5053370;28;20196;-82
2022/09/07 01:09:58;;;;;;;1.00;1.00;;;;;;;;;;5028880;28;20203;-82
2022/09/07 01:12:26;;;;;;;1.13;1.00;;;;;;;;;;5049688;28;20204;-83
2022/09/07 01:14:54;;;;;;;2.00;1.10;;;;;;;;;;5029428;28;20207;-85
2022/09/07 01:17:26;;;;;;;0.90;0.90;;;;;;;;;;5038119;28;20740;-84
2022/09/07 01:20:38;;;;;;;1.40;1.07;;;;;;;;;;5036795;28;20223;-84
2022/09/07 01:23:33;;;;;;;0.80;0.80;;;;;;;;;;4971712;28;20203;-84
2022/09/07 01:26:16;;;;;;;0.90;0.90;;;;;;;;;;5034912;28;20238;-84
2022/09/07 01:28:48;;;;;;;1.07;1.07;;;;;;;;;;5044387;28;20309;-84
2022/09/07 01:31:20;;;;;;;1.37;1.17;;;;;;;;;;5053415;28;20210;-84
2022/09/07 01:33:52;;;;;;;1.00;0.90;;;;;;;;;;5043376;28;20214;-84
2022/09/07 01:36:25;;;;;;;1.27;1.17;;;;;;;;;;5045181;28;20606;-85
2022/09/07 01:38:54;;;;;;;1.00;1.00;;;;;;;;;;5043389;28;20218;-84
2022/09/07 01:41:25;;;;;;;1.10;1.10;;;;;;;;;;5051987;28;20219;-85
2022/09/07 01:43:59;;;;;;;1.00;1.00;;;;;;;;;;5046843;28;20274;-84
2022/09/07 01:46:29;;;;;;;0.80;0.80;;;;;;;;;;5036145;28;20230;-85
2022/09/07 01:48:59;;;;;;;1.07;0.73;;;;;;;;;;5044095;28;20295;-84
2022/09/07 01:51:29;;;;;;;1.20;1.10;;;;;;;;;;5044731;28;20213;-84
2022/09/07 01:53:58;;;;;;;1.07;1.03;;;;;;;;;;5030626;28;20195;-85
2022/09/07 01:56:27;;;;;;;0.90;0.90;;;;;;;;;;5041427;28;20201;-85
2022/09/07 01:58:57;;;;;;;0.90;0.90;;;;;;;;;;5042894;28;20273;-84
2022/09/07 02:01:25;;;;;;;1.20;1.10;;;;;;;;;;5052516;28;20246;-85
2022/09/07 02:03:56;;;;;;;0.87;0.87;;;;;;;;;;5052425;28;20215;-85
2022/09/07 02:06:26;;;;;;;0.87;0.87;;;;;;;;;;5052747;28;20280;-85
2022/09/07 02:08:56;;;;;;;0.80;0.80;;;;;;;;;;5048370;28;20203;-85
2022/09/07 02:11:25;;;;;;;0.80;0.80;;;;;;;;;;5027174;28;20209;-85
2022/09/07 02:13:56;;;;;;;0.80;0.80;;;;;;;;;;5034064;28;20225;-85
2022/09/07 02:16:26;;;;;;;0.87;0.87;;;;;;;;;;5025532;28;20613;-85
2022/09/07 02:18:56;;;;;;;1.37;1.27;;;;;;;;;;5052290;28;20211;-84
2022/09/07 02:21:28;;;;;;;1.40;1.13;;;;;;;;;;5038527;28;20205;-84
2022/09/07 02:23:58;;;;;;;0.70;0.70;;;;;;;;;;5051130;28;20198;-84
2022/09/07 02:26:25;;;;;;;0.60;0.60;;;;;;;;;;5005605;28;20714;-85
2022/09/07 02:28:53;;;;;;;0.90;0.90;;;;;;;;;;5034359;28;20209;-85
2022/09/07 02:31:22;;;;;;;1.00;1.00;;;;;;;;;;5020548;28;20249;-85
2022/09/07 02:33:49;;;;;;;1.30;0.97;;;;;;;;;;5052291;28;20205;-85
2022/09/07 02:36:18;;;;;;;0.90;0.90;;;;;;;;;;5052173;28;20213;-85
2022/09/07 02:38:45;;;;;;;0.93;0.93;;;;;;;;;;5046429;28;20202;-85
2022/09/07 02:41:29;;;;;;;0.93;0.93;;;;;;;;;;5024821;28;20685;-85
2022/09/07 02:43:56;;;;;;;0.90;0.90;;;;;;;;;;5045365;28;20639;-85
2022/09/07 02:46:34;;;;;;;1.17;1.07;;;;;;;;;;5051979;28;20712;-85
2022/09/07 02:49:08;;;;;;;0.80;0.80;;;;;;;;;;5044461;28;20265;-85
2022/09/07 02:51:41;;;;;;;0.97;0.97;;;;;;;;;;5040423;28;20211;-86
2022/09/07 02:54:27;;;;;;;1.77;1.67;;;;;;;;;;5033058;28;20199;-85
2022/09/07 02:57:00;;;;;;;0.90;0.90;;;;;;;;;;5025637;28;20272;-85
2022/09/07 02:59:45;;;;;;;1.80;1.03;;;;;;;;;;5038630;28;20224;-86
2022/09/07 03:02:19;;;;;;;1.10;1.10;;;;;;;;;;5037586;28;20693;-85
2022/09/07 03:04:50;;;;;;;0.80;0.80;;;;;;;;;;5036030;28;20241;-86
2022/09/07 03:07:20;;;;;;;1.33;1.23;;;;;;;;;;5045948;28;20226;-86
2022/09/07 03:09:52;;;;;;;1.10;1.00;;;;;;;;;;5039402;28;20198;-86
2022/09/07 03:12:19;;;;;;;1.30;1.20;;;;;;;;;;5048041;28;20268;-86
2022/09/07 03:14:46;;;;;;;1.33;1.23;;;;;;;;;;5003353;28;20676;-86
2022/09/07 03:17:15;;;;;;;1.57;1.50;;;;;;;;;;5026799;28;20213;-86
2022/09/07 03:19:43;;;;;;;1.40;1.30;;;;;;;;;;5041044;28;20213;-86
2022/09/07 03:22:09;;;;;;;1.10;1.00;;;;;;;;;;5051810;28;20209;-85
2022/09/07 03:24:36;;;;;;;0.97;0.97;;;;;;;;;;5042053;28;20255;-85
2022/09/07 03:27:03;;;;;;;1.27;1.17;;;;;;;;;;5045292;28;20225;-84
2022/09/07 03:29:30;;;;;;;1.27;1.27;;;;;;;;;;5040143;28;20264;-84
2022/09/07 03:31:57;;;;;;;1.17;1.17;;;;;;;;;;5051481;28;20633;-85
2022/09/07 03:34:26;;;;;;;1.90;1.80;;;;;;;;;;5050701;28;20267;-84
2022/09/07 03:36:53;;;;;;;1.40;1.30;;;;;;;;;;5050976;28;20229;-84
2022/09/07 03:39:22;;;;;;;1.33;1.00;;;;;;;;;;5023195;28;20202;-85
2022/09/07 03:41:49;;;;;;;1.20;1.07;;;;;;;;;;5032927;28;20216;-84
2022/09/07 03:44:16;;;;;;;1.20;1.10;;;;;;;;;;5050999;28;20627;-86
2022/09/07 03:46:43;;;;;;;1.57;1.23;;;;;;;;;;5050432;28;20708;-85
2022/09/07 03:49:10;;;;;;;1.33;1.10;;;;;;;;;;5033242;28;20205;-86
2022/09/07 03:51:39;;;;;;;1.33;1.20;;;;;;;;;;5050811;28;20210;-85
2022/09/07 03:54:07;;;;;;;1.43;1.40;;;;;;;;;;5039907;28;20230;-86
2022/09/07 03:56:34;;;;;;;1.03;1.00;;;;;;;;;;5020776;28;20699;-86
2022/09/07 03:59:01;;;;;;;2.97;1.40;;;;;;;;;;5033580;28;20285;-87
2022/09/07 04:01:29;;;;;;;2.03;1.70;;;;;;;;;;5012602;28;20592;-87
2022/09/07 04:03:58;;;;;;;2.00;1.57;;;;;;;;;;5034624;28;20202;-87
2022/09/07 04:06:25;;;;;;;1.90;1.80;;;;;;;;;;5030835;28;20233;-81
2022/09/07 04:08:55;;;;;;;1.87;1.77;;;;;;;;;;5026358;28;20202;-86
2022/09/07 04:11:22;;;;;;;1.50;1.40;;;;;;;;;;5031037;28;20202;-77
2022/09/07 04:13:49;;;;;;;1.37;1.27;;;;;;;;;;5043804;28;20208;-77
2022/09/07 04:16:18;;;;;;;1.20;1.10;;;;;;;;;;5022669;28;20222;-80
2022/09/07 04:18:45;;;;;;;3.07;2.03;;;;;;;;;;5044007;28;20202;-79
2022/09/07 04:21:11;;;;;;;1.40;1.30;;;;;;;;;;5044599;28;20631;-79
2022/09/07 04:23:39;;;;;;;1.37;1.27;;;;;;;;;;5049806;28;20650;-78
2022/09/07 04:26:13;;;;;;;0.83;0.83;;;;;;;;;;5050219;28;20241;-79
2022/09/07 04:28:40;;;;;;;1.50;1.40;;;;;;;;;;5049733;28;20224;-79
2022/09/07 04:31:07;;;;;;;1.80;1.70;;;;;;;;;;5045879;28;20201;-79
2022/09/07 04:33:34;;;;;;;1.30;1.20;;;;;;;;;;5026760;28;20271;-79
2022/09/07 04:36:01;;;;;;;1.60;1.50;;;;;;;;;;5049736;28;20205;-79
2022/09/07 04:38:29;;;;;;;0.97;0.97;;;;;;;;;;5049519;28;20217;-78
2022/09/07 04:40:59;;;;;;;1.57;1.47;;;;;;;;;;5050109;28;20214;-79
2022/09/07 04:43:28;;;;;;;1.20;1.10;;;;;;;;;;5049863;28;20202;-79
2022/09/07 04:45:55;;;;;;;1.37;1.27;;;;;;;;;;5037670;28;20199;-79
2022/09/07 04:48:22;;;;;;;1.50;1.07;;;;;;;;;;5047669;28;20209;-79
2022/09/07 04:50:48;;;;;;;1.33;1.20;;;;;;;;;;5050333;28;20209;-79
2022/09/07 04:53:15;;;;;;;1.40;1.30;;;;;;;;;;5049777;28;20214;-79
2022/09/07 04:55:42;;;;;;;1.20;1.20;;;;;;;;;;5036078;28;20201;-79
2022/09/07 04:58:09;;;;;;;1.87;1.67;;;;;;;;;;5049758;28;20616;-79
2022/09/07 05:00:37;;;;;;;1.50;1.40;;;;;;;;;;5049677;28;20206;-79
2022/09/07 05:03:04;;;;;;;1.30;1.30;;;;;;;;;;5049545;28;20202;-79
2022/09/07 05:05:31;;;;;;;1.13;1.10;;;;;;;;;;5049548;28;20198;-78
2022/09/07 05:07:58;;;;;;;1.30;1.20;;;;;;;;;;5032102;28;20230;-79
2022/09/07 05:10:25;;;;;;;1.00;1.00;;;;;;;;;;5045427;28;20696;-79
2022/09/07 05:12:52;;;;;;;1.53;1.33;;;;;;;;;;5039387;28;20261;-79
2022/09/07 05:15:18;;;;;;;1.37;1.27;;;;;;;;;;5035804;28;20216;-79
2022/09/07 05:17:48;;;;;;;1.43;1.37;;;;;;;;;;5030679;28;20207;-78
2022/09/07 05:20:18;;;;;;;1.10;1.00;;;;;;;;;;5016663;28;20206;-76
2022/09/07 05:22:45;;;;;;;0.90;0.90;;;;;;;;;;5033271;28;20301;-76
2022/09/07 05:25:12;;;;;;;1.00;1.00;;;;;;;;;;5031649;28;20642;-76
2022/09/07 05:27:39;;;;;;;1.20;1.10;;;;;;;;;;5050681;28;20230;-76
2022/09/07 05:30:08;;;;;;;1.23;1.13;;;;;;;;;;5048575;28;20206;-77
2022/09/07 05:32:35;;;;;;;1.47;1.37;;;;;;;;;;5026540;28;20198;-77
2022/09/07 05:35:03;;;;;;;1.10;1.00;;;;;;;;;;5033528;28;20688;-77
2022/09/07 05:37:30;;;;;;;1.23;1.10;;;;;;;;;;5034800;28;20215;-76
2022/09/07 05:39:57;;;;;;;0.90;0.90;;;;;;;;;;5037060;28;20237;-77
2022/09/07 05:42:24;;;;;;;1.50;1.40;;;;;;;;;;5046454;28;20210;-77
2022/09/07 05:44:51;;;;;;;1.20;1.10;;;;;;;;;;5032685;28;20267;-79
2022/09/07 05:47:18;;;;;;;0.90;0.90;;;;;;;;;;5025009;28;20731;-76
2022/09/07 05:49:45;;;;;;;0.83;0.83;;;;;;;;;;5044532;28;20211;-75
2022/09/07 05:52:14;;;;;;;1.20;1.10;;;;;;;;;;5035492;28;20206;-76
2022/09/07 05:54:41;;;;;;;0.80;0.80;;;;;;;;;;5042215;28;20290;-75
2022/09/07 05:57:11;;;;;;;1.40;1.00;;;;;;;;;;5034776;28;20608;-76
2022/09/07 05:59:38;;;;;;;0.73;0.73;;;;;;;;;;5033340;28;20218;-76
2022/09/07 06:02:05;;;;;;;0.90;0.90;;;;;;;;;;5047386;28;20201;-76
2022/09/07 06:04:32;;;;;;;1.27;1.17;;;;;;;;;;5052295;28;20202;-76
2022/09/07 06:06:59;;;;;;;1.00;1.00;;;;;;;;;;5033233;28;20264;-76
2022/09/07 06:09:28;;;;;;;1.33;1.13;;;;;;;;;;5038662;28;20213;-76
2022/09/07 06:11:54;;;;;;;0.80;0.80;;;;;;;;;;5022334;28;20210;-76
2022/09/07 06:14:21;;;;;;;0.70;0.70;;;;;;;;;;5047783;28;20201;-76
2022/09/07 06:16:48;;;;;;;1.23;1.20;;;;;;;;;;5052093;28;20683;-76
2022/09/07 06:19:15;;;;;;;0.77;0.77;;;;;;;;;;5052179;28;20255;-76
2022/09/07 06:21:42;;;;;;;1.10;1.10;;;;;;;;;;5029638;28;20262;-75
2022/09/07 06:24:09;;;;;;;3.37;0.80;;;;;;;;;;5044604;28;20631;-76
2022/09/07 06:26:37;;;;;;;0.73;0.73;;;;;;;;;;5031874;28;20326;-79
2022/09/07 06:29:04;;;;;;;1.10;1.00;;;;;;;;;;5035590;28;20204;-76
2022/09/07 06:31:31;;;;;;;0.70;0.70;;;;;;;;;;5052237;28;20303;-76
2022/09/07 06:33:58;;;;;;;0.90;0.90;;;;;;;;;;5047834;28;20214;-76
2022/09/07 06:36:27;;;;;;;0.93;0.93;;;;;;;;;;5030806;28;20738;-76
2022/09/07 06:38:55;;;;;;;1.57;1.27;;;;;;;;;;5046070;28;20292;-77
2022/09/07 06:41:23;;;;;;;0.80;0.80;;;;;;;;;;5041081;28;20232;-76
2022/09/07 06:43:51;;;;;;;0.93;0.90;;;;;;;;;;5051443;28;20209;-76
2022/09/07 06:46:18;;;;;;;1.03;1.03;;;;;;;;;;5045700;28;20206;-76
2022/09/07 06:48:45;;;;;;;1.17;1.00;;;;;;;;;;5029664;28;20209;-76
2022/09/07 06:51:14;;;;;;;1.10;1.00;;;;;;;;;;5028722;28;20233;-76
2022/09/07 06:53:41;;;;;;;0.80;0.80;;;;;;;;;;5027386;28;21071;-76
2022/09/07 06:56:09;;;;;;;1.10;1.10;;;;;;;;;;5031056;28;20290;-76
2022/09/07 06:58:37;;;;;;;1.20;1.17;;;;;;;;;;5042843;28;20238;-76
2022/09/07 07:01:08;;;;;;;0.83;0.83;;;;;;;;;;5014178;28;20199;-76
2022/09/07 07:03:36;;;;;;;1.10;1.00;;;;;;;;;;5013276;28;20229;-77
2022/09/07 07:06:02;;;;;;;0.97;0.97;;;;;;;;;;5049980;28;20995;-78
2022/09/07 07:08:29;;;;;;;1.13;1.13;;;;;;;;;;5033430;28;20225;-76
2022/09/07 07:10:56;;;;;;;1.20;1.10;;;;;;;;;;5051519;28;20205;-76
2022/09/07 07:13:23;;;;;;;0.93;0.90;;;;;;;;;;5051239;28;20213;-76
2022/09/07 07:15:52;;;;;;;1.10;1.10;;;;;;;;;;5048387;28;20255;-77
2022/09/07 07:18:20;;;;;;;1.00;1.00;;;;;;;;;;5033168;28;20265;-76
2022/09/07 07:20:47;;;;;;;1.10;1.10;;;;;;;;;;5051112;28;20275;-77
2022/09/07 07:23:14;;;;;;;1.40;1.30;;;;;;;;;;5050411;28;20201;-76
2022/09/07 07:25:41;;;;;;;1.30;1.20;;;;;;;;;;5050513;28;20210;-76
2022/09/07 07:28:08;;;;;;;1.20;1.20;;;;;;;;;;5050633;28;20241;-77
2022/09/07 07:30:35;;;;;;;1.03;1.00;;;;;;;;;;5050555;28;20289;-76
2022/09/07 07:33:03;;;;;;;1.13;1.10;;;;;;;;;;5032650;28;20210;-76
2022/09/07 07:35:31;;;;;;;1.73;1.20;;;;;;;;;;5050409;28;20241;-76
2022/09/07 07:37:58;;;;;;;1.67;1.57;;;;;;;;;;5019231;28;20673;-76
2022/09/07 07:40:27;;;;;;;1.00;1.00;;;;;;;;;;5050909;28;20280;-76
2022/09/07 07:42:55;;;;;;;3.73;2.27;;;;;;;;;;5050535;28;20206;-77
2022/09/07 07:45:21;;;;;;;1.40;1.30;;;;;;;;;;5050680;28;20224;-76
2022/09/07 07:47:49;;;;;;;1.17;1.17;;;;;;;;;;5024082;28;20238;-77
2022/09/07 07:50:17;;;;;;;1.10;1.10;;;;;;;;;;5039504;28;20231;-76
2022/09/07 07:52:45;;;;;;;0.93;0.93;;;;;;;;;;5018065;28;20735;-76
2022/09/07 07:55:12;;;;;;;1.17;1.07;;;;;;;;;;5030490;28;20206;-77
2022/09/07 07:57:39;;;;;;;1.73;1.40;;;;;;;;;;5027851;28;20308;-76
2022/09/07 08:00:07;;;;;;;1.20;1.10;;;;;;;;;;5040316;28;20206;-79
2022/09/07 08:02:35;;;;;;;1.60;1.50;;;;;;;;;;5000840;28;20665;-79
2022/09/07 08:05:02;;;;;;;4.03;1.90;;;;;;;;;;5044781;28;20213;-79
2022/09/07 08:07:29;;;;;;;1.20;1.13;;;;;;;;;;5038759;28;20621;-79
2022/09/07 08:09:57;;;;;;;1.37;1.23;;;;;;;;;;5044325;28;20191;-79
2022/09/07 08:12:25;;;;;;;1.50;1.40;;;;;;;;;;5049989;28;20206;-80
2022/09/07 08:14:52;;;;;;;1.70;1.60;;;;;;;;;;5031966;28;20237;-80
2022/09/07 08:17:19;;;;;;;1.60;1.50;;;;;;;;;;5049975;28;20289;-80
2022/09/07 08:19:47;;;;;;;1.73;1.30;;;;;;;;;;5031952;28;20205;-79
2022/09/07 08:22:13;;;;;;;1.33;1.23;;;;;;;;;;5031888;28;20216;-79
2022/09/07 08:24:40;;;;;;;1.70;1.60;;;;;;;;;;5049592;28;20210;-79
2022/09/07 08:27:09;;;;;;;1.70;1.60;;;;;;;;;;5032176;28;20217;-80
2022/09/07 08:29:36;;;;;;;1.40;1.30;;;;;;;;;;5049936;28;20771;-79
2022/09/07 08:32:05;;;;;;;1.23;1.10;;;;;;;;;;5049621;28;20209;-79
2022/09/07 08:34:32;;;;;;;1.40;1.30;;;;;;;;;;5050116;28;20201;-80
2022/09/07 08:36:58;;;;;;;1.73;1.60;;;;;;;;;;5050050;28;20251;-78
2022/09/07 08:39:25;;;;;;;1.37;1.27;;;;;;;;;;5049487;28;20213;-79
2022/09/07 08:42:11;;;;;;;1.30;1.20;;;;;;;;;;5049816;28;20214;-79
2022/09/07 08:44:41;;;;;;;1.77;1.67;;;;;;;;;;5030976;28;20209;-78
2022/09/07 08:47:15;;;;;;;1.47;1.37;;;;;;;;;;5049582;28;20699;-78
2022/09/07 08:49:45;;;;;;;1.50;1.40;;;;;;;;;;5050694;28;20232;-79
2022/09/07 08:52:13;;;;;;;2.60;1.80;;;;;;;;;;5053583;28;20703;-77
2022/09/07 08:54:44;;;;;;;1.80;1.67;;;;;;;;;;5044280;28;20212;-77
2022/09/07 08:57:24;;;;;;;2.33;2.13;;;;;;;;;;5033498;28;20229;-78
2022/09/07 08:59:57;;;;;;;1.60;1.50;;;;;;;;;;5033917;28;20199;-78
2022/09/07 09:02:26;;;;;;;1.70;1.60;;;;;;;;;;5043167;28;20203;-78
2022/09/07 09:04:53;;;;;;;2.10;1.77;;;;;;;;;;5017414;28;20221;-78
2022/09/07 09:07:22;;;;;;;1.80;1.70;;;;;;;;;;5050322;28;20283;-79
2022/09/07 09:10:09;;;;;;;2.13;1.50;;;;;;;;;;5053184;28;20205;-79
2022/09/07 09:12:45;;;;;;;1.60;1.50;;;;;;;;;;5047307;28;20275;-76
2022/09/07 09:15:17;;;;;;;1.53;1.37;;;;;;;;;;5050288;28;20212;-79
2022/09/07 09:17:48;;;;;;;2.40;1.37;;;;;;;;;;5041530;28;20214;-77
2022/09/07 09:20:21;;;;;;;1.90;1.80;;;;;;;;;;5038617;28;20202;-78
2022/09/07 09:22:48;;;;;;;1.53;1.43;;;;;;;;;;5053105;28;20217;-78
2022/09/07 09:25:19;;;;;;;1.70;1.60;;;;;;;;;;5026214;28;20767;-78
2022/09/07 09:27:48;;;;;;;1.50;1.40;;;;;;;;;;5044006;28;20660;-78
2022/09/07 09:30:17;;;;;;;1.90;1.70;;;;;;;;;;5052194;28;20194;-78
2022/09/07 09:32:45;;;;;;;2.07;1.97;;;;;;;;;;5053273;28;20198;-79
2022/09/07 09:35:20;;;;;;;1.53;1.43;;;;;;;;;;5043888;28;20913;-81
2022/09/07 09:37:47;;;;;;;1.90;1.77;;;;;;;;;;5048677;28;20205;-81
2022/09/07 09:40:23;;;;;;;2.40;1.70;;;;;;;;;;5034908;28;20202;-80
2022/09/07 09:43:01;;;;;;;1.80;1.70;;;;;;;;;;5050155;28;20201;-80
2022/09/07 09:45:30;;;;;;;2.27;2.07;;;;;;;;;;5042254;28;20205;-80
2022/09/07 09:47:58;;;;;;;1.90;1.80;;;;;;;;;;5034625;28;20275;-81
2022/09/07 09:50:27;;;;;;;1.17;1.10;;;;;;;;;;5053201;28;20202;-81
2022/09/07 09:52:55;;;;;;;2.13;2.03;;;;;;;;;;5034223;28;20328;-82
2022/09/07 09:55:26;;;;;;;3.67;2.20;;;;;;;;;;5020533;28;20202;-80
2022/09/07 09:57:57;;;;;;;2.27;2.13;;;;;;;;;;5052082;28;20242;-82
2022/09/07 10:00:27;;;;;;;2.50;2.27;;;;;;;;;;5052103;28;20628;-81
2022/09/07 10:03:17;;;;;;;2.10;1.90;;;;;;;;;;5051984;28;20225;-80
2022/09/07 10:05:46;;;;;;;2.30;2.10;;;;;;;;;;5048549;28;20241;-81
2022/09/07 10:08:18;;;;;;;2.00;1.90;;;;;;;;;;5052079;28;20237;-80
2022/09/07 10:10:53;;;;;;;2.10;2.00;;;;;;;;;;5051471;28;20202;-81
2022/09/07 10:13:22;;;;;;;2.00;1.90;;;;;;;;;;5020198;28;20203;-78
2022/09/07 10:15:55;;;;;;;2.20;2.00;;;;;;;;;;5051425;28;20294;-78
2022/09/07 10:18:31;;;;;;;3.00;2.50;;;;;;;;;;5033930;28;20299;-77
2022/09/07 10:21:21;;;;;;;2.23;2.10;;;;;;;;;;5031032;28;20300;-78
2022/09/07 10:23:49;;;;;;;1.60;1.50;;;;;;;;;;5033618;28;20232;-78
2022/09/07 10:26:29;;;;;;;1.70;1.60;;;;;;;;;;5035089;28;20198;-78
2022/09/07 10:29:13;;;;;;;2.20;2.10;;;;;;;;;;5031941;28;20309;-78
2022/09/07 10:32:17;;;;;;;1.93;1.80;;;;;;;;;;5038916;28;20201;-79
2022/09/07 10:35:01;;;;;;;2.00;1.87;;;;;;;;;;5038468;28;20631;-77
2022/09/07 10:37:46;;;;;;;1.70;1.60;;;;;;;;;;5034254;28;20201;-78
2022/09/07 10:40:22;;;;;;;2.03;1.87;;;;;;;;;;5022014;28;20598;-77
2022/09/07 10:42:56;;;;;;;2.10;1.90;;;;;;;;;;5043738;28;20675;-77
2022/09/07 10:45:28;;;;;;;1.97;1.77;;;;;;;;;;5020982;28;20232;-79
2022/09/07 10:48:00;;;;;;;1.90;1.80;;;;;;;;;;5051257;28;20229;-78
2022/09/07 10:50:32;;;;;;;1.83;1.73;;;;;;;;;;5029161;28;20202;-79
2022/09/07 10:53:12;;;;;;;2.13;1.93;;;;;;;;;;5050691;28;20862;-78
2022/09/07 10:55:41;;;;;;;1.67;1.57;;;;;;;;;;5033557;28;20222;-78
2022/09/07 10:58:19;;;;;;;1.67;1.57;;;;;;;;;;5036607;28;20225;-77
2022/09/07 11:01:01;;;;;;;1.73;1.63;;;;;;;;;;5042255;28;20256;-78
2022/09/07 11:03:45;;;;;;;2.23;1.50;;;;;;;;;;5013232;28;20202;-78
2022/09/07 11:06:18;;;;;;;1.37;1.37;;;;;;;;;;5040283;28;20203;-78
2022/09/07 11:09:11;;;;;;;1.40;1.30;;;;;;;;;;5041744;28;20602;-78
2022/09/07 11:11:41;;;;;;;1.50;1.40;;;;;;;;;;5023930;28;20205;-78
2022/09/07 11:14:11;;;;;;;1.50;1.40;;;;;;;;;;5005547;28;20210;-79
2022/09/07 11:16:41;;;;;;;1.60;1.50;;;;;;;;;;5048665;28;20206;-79
2022/09/07 11:19:14;;;;;;;1.50;1.40;;;;;;;;;;5035341;28;20223;-79
2022/09/07 11:21:48;;;;;;;1.37;1.30;;;;;;;;;;5032753;28;20198;-79
2022/09/07 11:24:24;;;;;;;1.77;1.67;;;;;;;;;;5046350;28;20251;-79
2022/09/07 11:26:53;;;;;;;1.60;1.50;;;;;;;;;;5050562;28;20217;-77
2022/09/07 11:29:25;;;;;;;1.60;1.40;;;;;;;;;;5048827;28;20312;-78
2022/09/07 11:31:55;;;;;;;1.50;1.40;;;;;;;;;;5037863;28;20205;-79
2022/09/07 11:34:25;;;;;;;1.50;1.40;;;;;;;;;;5040309;28;20260;-79
2022/09/07 11:36:57;;;;;;;1.70;1.60;;;;;;;;;;5012530;28;20211;-79
2022/09/07 11:39:29;;;;;;;1.90;1.80;;;;;;;;;;5025512;28;20205;-80
2022/09/07 11:42:00;;;;;;;1.80;1.70;;;;;;;;;;5023041;28;20199;-80
2022/09/07 11:44:33;;;;;;;1.83;1.60;;;;;;;;;;5030445;28;20289;-79
2022/09/07 11:47:04;;;;;;;1.47;1.40;;;;;;;;;;5039982;28;20229;-78
2022/09/07 11:49:31;;;;;;;1.50;1.40;;;;;;;;;;5035279;28;20230;-76
2022/09/07 11:52:02;;;;;;;2.23;1.80;;;;;;;;;;5024593;28;20569;-78
2022/09/07 11:54:34;;;;;;;1.67;1.57;;;;;;;;;;5041428;28;20285;-77
2022/09/07 11:57:13;;;;;;;2.00;1.83;;;;;;;;;;5045297;28;20619;-78
2022/09/07 11:59:50;;;;;;;1.83;1.73;;;;;;;;;;5033064;28;20587;-76
2022/09/07 12:02:30;;;;;;;2.07;1.97;;;;;;;;;;5049821;28;20263;-77
2022/09/07 12:05:05;;;;;;;1.77;1.67;;;;;;;;;;5050534;28;20197;-76
2022/09/07 12:08:02;;;;;;;2.40;2.30;;;;;;;;;;5041174;28;20205;-77
2022/09/07 12:10:55;;;;;;;1.13;1.13;;;;;;;;;;5049638;28;20707;-78
2022/09/07 12:13:45;;;;;;;1.23;1.20;;;;;;;;;;5043613;28;20212;-77
2022/09/07 12:16:18;;;;;;;1.60;1.50;;;;;;;;;;5043524;28;20198;-77
2022/09/07 12:19:02;;;;;;;1.33;1.20;;;;;;;;;;5035157;28;20213;-76
2022/09/07 12:21:37;;;;;;;1.73;1.63;;;;;;;;;;5029849;28;20202;-77
2022/09/07 12:24:26;;;;;;;2.20;2.10;;;;;;;;;;5033916;28;20203;-77
2022/09/07 12:26:53;;;;;;;1.93;1.60;;;;;;;;;;5045858;28;20676;-77
2022/09/07 12:29:23;;;;;;;1.63;1.53;;;;;;;;;;5009140;28;20235;-77
2022/09/07 12:31:51;;;;;;;1.53;1.43;;;;;;;;;;5047290;28;20209;-78
2022/09/07 12:34:51;;;;;;;1.30;1.30;;;;;;;;;;5020324;28;20989;-78
2022/09/07 12:37:39;;;;;;;2.80;1.47;;;;;;;;;;5026468;28;20211;-77
2022/09/07 12:40:45;;;;;;;1.33;1.33;;;;;;;;;;5028659;28;20596;-79
2022/09/07 12:43:46;;;;;;;1.80;1.70;;;;;;;;;;5038960;28;20198;-78
2022/09/07 12:46:19;;;;;;;1.83;1.60;;;;;;;;;;5045258;28;20225;-77
2022/09/07 12:48:54;;;;;;;1.60;1.50;;;;;;;;;;5034915;28;20667;-77
2022/09/07 12:51:30;;;;;;;1.27;1.27;;;;;;;;;;5029538;28;20202;-77
2022/09/07 12:54:03;;;;;;;1.80;1.70;;;;;;;;;;5028912;28;20700;-78
2022/09/07 12:56:40;;;;;;;1.77;1.67;;;;;;;;;;5027937;28;20635;-78
2022/09/07 12:59:34;;;;;;;1.50;1.40;;;;;;;;;;5029034;28;20230;-77
2022/09/07 13:02:20;;;;;;;1.03;1.03;;;;;;;;;;5012361;28;20218;-78
2022/09/07 13:04:55;;;;;;;1.80;1.67;;;;;;;;;;5028213;28;20199;-79
2022/09/07 13:08:00;;;;;;;1.50;1.40;;;;;;;;;;5011918;28;20217;-79
2022/09/07 13:10:29;;;;;;;1.63;1.53;;;;;;;;;;4993042;28;20217;-79
2022/09/07 13:13:04;;;;;;;2.57;1.97;;;;;;;;;;5049412;28;20289;-79
2022/09/07 13:15:49;;;;;;;1.70;1.30;;;;;;;;;;5048803;28;20196;-79
2022/09/07 13:18:41;;;;;;;1.50;1.47;;;;;;;;;;5033381;28;20367;-78
2022/09/07 13:21:31;;;;;;;2.30;1.97;;;;;;;;;;5044971;28;20214;-79
2022/09/07 13:24:36;;;;;;;1.40;1.30;;;;;;;;;;5049268;28;20198;-79
2022/09/07 13:27:25;;;;;;;1.50;1.40;;;;;;;;;;5030383;28;20285;-79
2022/09/07 13:29:56;;;;;;;2.03;1.40;;;;;;;;;;5039584;28;20222;-79
2022/09/07 13:32:26;;;;;;;1.33;1.30;;;;;;;;;;5049149;28;20256;-79
2022/09/07 13:35:06;;;;;;;3.00;1.30;;;;;;;;;;5036712;28;20202;-79
2022/09/07 13:37:37;;;;;;;1.70;1.60;;;;;;;;;;5044529;28;20198;-79
2022/09/07 13:40:09;;;;;;;1.70;1.60;;;;;;;;;;5048143;28;20206;-79
2022/09/07 13:42:36;;;;;;;1.60;1.50;;;;;;;;;;5028549;28;20592;-79
2022/09/07 13:45:08;;;;;;;1.27;1.27;;;;;;;;;;5047580;28;20672;-79
2022/09/07 13:47:48;;;;;;;1.48;1.38;;;;;;;;;;5025814;28;20207;-78
2022/09/07 13:50:23;;;;;;;1.50;1.40;;;;;;;;;;5042124;28;20230;-78
2022/09/07 13:53:15;;;;;;;2.10;1.40;;;;;;;;;;5052467;28;20716;-80
2022/09/07 13:55:50;;;;;;;1.50;1.40;;;;;;;;;;5020880;28;20201;-79
2022/09/07 13:58:20;;;;;;;1.73;1.63;;;;;;;;;;5052913;28;20225;-79
2022/09/07 14:01:07;;;;;;;1.37;1.30;;;;;;;;;;5051941;28;20198;-79
2022/09/07 14:03:43;;;;;;;1.20;1.20;;;;;;;;;;5015781;28;20207;-76
2022/09/07 14:06:15;;;;;;;1.50;1.40;;;;;;;;;;5034498;28;20209;-77
2022/09/07 14:08:49;;;;;;;1.63;1.53;;;;;;;;;;5052151;28;20217;-77
2022/09/07 14:11:19;;;;;;;1.23;1.17;;;;;;;;;;5051778;28;20213;-78
2022/09/07 14:13:46;;;;;;;1.83;1.73;;;;;;;;;;5051877;28;20198;-77
2022/09/07 14:16:15;;;;;;;1.10;1.10;;;;;;;;;;5052055;28;20207;-77
2022/09/07 14:18:43;;;;;;;1.53;1.30;;;;;;;;;;5034287;28;20213;-78
2022/09/07 14:21:19;;;;;;;1.67;1.57;;;;;;;;;;5052017;28;20197;-78
2022/09/07 14:23:49;;;;;;;1.43;1.33;;;;;;;;;;5051308;28;20244;-77
2022/09/07 14:26:18;;;;;;;1.33;1.23;;;;;;;;;;5017686;28;20285;-78
2022/09/07 14:28:46;;;;;;;1.87;1.77;;;;;;;;;;5051751;28;20221;-77
2022/09/07 14:31:18;;;;;;;1.23;1.20;;;;;;;;;;5052307;28;20201;-79
2022/09/07 14:33:47;;;;;;;1.67;1.57;;;;;;;;;;5051682;28;20237;-77
2022/09/07 14:36:17;;;;;;;1.60;1.50;;;;;;;;;;5033940;28;20201;-77
2022/09/07 14:38:44;;;;;;;1.33;1.33;;;;;;;;;;5052076;28;20625;-76
2022/09/07 14:41:14;;;;;;;1.63;1.30;;;;;;;;;;5052090;28;20198;-76
2022/09/07 14:43:51;;;;;;;1.23;1.17;;;;;;;;;;5051190;28;20206;-78
2022/09/07 14:46:22;;;;;;;1.30;1.30;;;;;;;;;;5051874;28;20205;-76
2022/09/07 14:48:51;;;;;;;1.30;1.30;;;;;;;;;;5050587;28;20206;-76
2022/09/07 14:51:22;;;;;;;1.10;1.10;;;;;;;;;;5051481;28;20275;-76
2022/09/07 14:53:50;;;;;;;1.10;1.10;;;;;;;;;;5036211;28;20211;-76
2022/09/07 14:56:20;;;;;;;1.40;1.23;;;;;;;;;;5040423;28;20276;-76
2022/09/07 14:58:48;;;;;;;1.67;1.57;;;;;;;;;;5036533;28;20318;-76
2022/09/07 15:01:21;;;;;;;1.30;1.20;;;;;;;;;;5050896;28;20280;-77
2022/09/07 15:03:56;;;;;;;1.13;1.13;;;;;;;;;;5029302;28;20255;-77
2022/09/07 15:06:37;;;;;;;1.30;1.30;;;;;;;;;;5046216;28;20205;-76
2022/09/07 15:09:05;;;;;;;1.37;1.27;;;;;;;;;;5033075;28;20210;-77